Time;durP1;ratioP1;P1;durP2;ratioP2;P2;SDS_P1;SDS_P2;PMS_P1;PMS_P2;Temp;Humidity;BMP_temperature;BMP_pressure;BME280_temperature;BME280_humidity;BME280_pressure;Samples;Min_cycle;Max_cycle;Signal;HPM_P1;HPM_P2
2022/07/23 00:02:21;;;;;;;7.55;1.80;;;;;;;16.97;61.59;101584.34;5047987;28;20082;-74
2022/07/23 00:04:46;;;;;;;4.07;1.00;;;;;;;17.07;61.33;101577.59;5028656;28;20052;-74
2022/07/23 00:07:12;;;;;;;6.93;1.50;;;;;;;17.14;61.37;101569.50;5047958;28;20025;-74
2022/07/23 00:09:37;;;;;;;4.50;1.13;;;;;;;17.23;60.71;101570.28;5048276;28;20080;-74
2022/07/23 00:12:03;;;;;;;4.88;1.35;;;;;;;16.81;61.90;101571.63;5030460;28;20029;-73
2022/07/23 00:14:28;;;;;;;9.32;1.90;;;;;;;17.00;61.44;101554.72;5049224;28;20028;-74
2022/07/23 00:16:53;;;;;;;11.90;1.80;;;;;;;16.87;61.57;101554.50;5032006;28;20044;-74
2022/07/23 00:19:19;;;;;;;7.68;1.40;;;;;;;16.71;62.50;101555.47;5031560;28;20047;-74
2022/07/23 00:21:44;;;;;;;9.00;1.88;;;;;;;16.96;61.92;101553.41;5031289;28;20021;-74
2022/07/23 00:24:09;;;;;;;6.65;1.60;;;;;;;16.98;61.48;101545.88;5047576;28;20023;-74
2022/07/23 00:26:35;;;;;;;8.27;1.52;;;;;;;16.88;61.70;101549.88;5025353;28;20049;-74
2022/07/23 00:29:00;;;;;;;5.50;1.50;;;;;;;16.97;61.13;101559.72;5031127;28;20021;-74
2022/07/23 00:31:25;;;;;;;6.47;1.27;;;;;;;17.05;60.49;101546.81;5048370;28;20074;-74
2022/07/23 00:33:52;;;;;;;5.82;1.10;;;;;;;16.90;60.85;101554.16;5029208;28;20026;-74
2022/07/23 00:36:17;;;;;;;5.18;1.40;;;;;;;16.86;61.20;101552.81;5031407;28;20078;-74
2022/07/23 00:38:43;;;;;;;7.25;1.40;;;;;;;16.83;61.02;101542.25;5048753;28;20025;-74
2022/07/23 00:41:08;;;;;;;11.70;1.58;;;;;;;16.88;61.02;101549.88;5030854;28;20064;-74
2022/07/23 00:43:34;;;;;;;7.18;1.10;;;;;;;16.76;61.25;101552.22;5030600;28;20024;-74
2022/07/23 00:45:59;;;;;;;8.75;1.58;;;;;;;16.85;60.96;101548.38;5048964;28;20018;-75
2022/07/23 00:48:24;;;;;;;7.20;1.55;;;;;;;16.60;61.58;101546.81;5048410;28;20029;-74
2022/07/23 00:50:50;;;;;;;7.05;1.42;;;;;;;16.71;61.38;101549.16;5030700;28;20029;-74
2022/07/23 00:53:15;;;;;;;5.93;1.20;;;;;;;16.54;61.58;101549.22;5048269;28;20017;-74
2022/07/23 00:55:41;;;;;;;5.78;1.20;;;;;;;16.47;62.10;101544.66;5026814;28;20022;-75
2022/07/23 00:58:08;;;;;;;6.65;1.23;;;;;;;16.55;61.77;101545.47;5047032;28;20025;-74
2022/07/23 01:00:33;;;;;;;6.82;1.40;;;;;;;16.51;62.02;101538.66;5030886;28;20067;-74
2022/07/23 01:02:59;;;;;;;6.93;1.40;;;;;;;16.59;61.99;101539.66;5047301;28;20134;-74
2022/07/23 01:05:24;;;;;;;5.82;1.30;;;;;;;16.78;61.57;101550.13;5027180;28;20029;-74
2022/07/23 01:07:51;;;;;;;6.03;1.48;;;;;;;16.59;62.86;101542.38;5045799;28;20047;-74
2022/07/23 01:10:32;;;;;;;6.93;1.45;;;;;;;16.77;62.40;101543.81;5030173;28;20021;-75
2022/07/23 01:12:58;;;;;;;8.68;1.55;;;;;;;16.64;63.37;101537.22;5030887;28;20044;-74
2022/07/23 01:15:23;;;;;;;6.00;1.30;;;;;;;16.37;64.65;101547.66;5031131;28;20032;-75
2022/07/23 01:17:49;;;;;;;6.95;1.70;;;;;;;16.47;64.73;101548.25;5030697;28;20021;-74
2022/07/23 01:20:15;;;;;;;8.13;2.10;;;;;;;16.72;63.74;101539.91;5048337;28;20036;-75
2022/07/23 01:22:41;;;;;;;16.92;1.73;;;;;;;16.46;64.87;101529.31;5030767;28;20094;-74
2022/07/23 01:25:06;;;;;;;3.72;1.40;;;;;;;16.58;63.88;101527.00;5047613;28;20448;-75
2022/07/23 01:27:32;;;;;;;5.20;2.10;;;;;;;16.50;64.43;101531.50;5027225;28;20036;-75
2022/07/23 01:30:00;;;;;;;5.60;1.40;;;;;;;16.34;64.86;101520.66;5028010;28;20021;-74
2022/07/23 01:32:25;;;;;;;7.78;1.40;;;;;;;16.22;65.15;101522.09;5048391;28;20039;-74
2022/07/23 01:34:50;;;;;;;8.73;1.92;;;;;;;16.41;64.59;101521.63;5024914;28;20032;-74
2022/07/23 01:37:16;;;;;;;5.05;1.50;;;;;;;16.55;63.92;101531.78;5026511;28;20499;-74
2022/07/23 01:39:41;;;;;;;6.55;1.38;;;;;;;16.18;64.75;101531.69;5044168;28;20044;-75
2022/07/23 01:42:06;;;;;;;7.53;1.38;;;;;;;16.19;64.62;101527.94;5046776;28;20033;-74
2022/07/23 01:44:32;;;;;;;5.97;1.15;;;;;;;16.29;64.73;101528.53;5030742;28;20029;-74
2022/07/23 01:46:57;;;;;;;12.73;1.73;;;;;;;16.21;65.02;101520.41;5048664;28;20088;-75
2022/07/23 01:49:23;;;;;;;8.93;1.52;;;;;;;16.31;64.29;101522.91;5030397;28;20024;-74
2022/07/23 01:52:01;;;;;;;9.00;1.45;;;;;;;16.35;64.24;101527.81;5029819;28;20021;-74
2022/07/23 01:54:30;;;;;;;7.90;1.77;;;;;;;16.32;64.48;101517.25;5030519;28;20156;-74
2022/07/23 01:56:57;;;;;;;5.63;1.00;;;;;;;16.44;64.03;101521.28;5047913;28;20025;-75
2022/07/23 01:59:23;;;;;;;5.72;1.05;;;;;;;16.48;63.92;101500.75;5047780;28;20021;-74
2022/07/23 02:01:50;;;;;;;7.85;1.23;;;;;;;16.44;63.80;101499.44;5046278;28;20070;-74
2022/07/23 02:04:16;;;;;;;3.72;1.05;;;;;;;16.38;64.01;101488.38;5048624;28;20060;-74
2022/07/23 02:06:42;;;;;;;6.00;1.23;;;;;;;16.41;63.69;101485.25;5049656;28;20472;-74
2022/07/23 02:09:07;;;;;;;3.83;1.10;;;;;;;16.35;63.94;101486.81;5050230;28;20032;-75
2022/07/23 02:11:32;;;;;;;7.00;1.30;;;;;;;16.37;63.63;101482.06;5049901;28;20032;-74
2022/07/23 02:13:58;;;;;;;8.70;1.38;;;;;;;16.22;64.48;101483.84;5050115;28;20021;-75
2022/07/23 02:16:23;;;;;;;5.75;1.67;;;;;;;16.53;63.60;101487.38;5051809;28;20016;-74
2022/07/23 02:18:49;;;;;;;2.22;1.10;;;;;;;16.40;63.81;101481.69;5051264;28;20037;-75
2022/07/23 02:21:14;;;;;;;7.40;1.58;;;;;;;16.46;63.57;101480.94;5050228;28;20476;-74
2022/07/23 02:23:39;;;;;;;9.45;1.60;;;;;;;16.48;63.56;101478.88;5051258;28;20520;-74
2022/07/23 02:26:05;;;;;;;2.40;1.13;;;;;;;16.48;63.36;101484.34;5050669;28;20052;-74
2022/07/23 02:28:30;;;;;;;7.97;1.45;;;;;;;16.37;63.41;101482.06;5026338;28;20022;-74
2022/07/23 02:30:55;;;;;;;4.50;1.33;;;;;;;16.57;63.03;101481.56;5043539;28;20036;-74
2022/07/23 02:33:21;;;;;;;5.32;1.55;;;;;;;16.59;62.74;101484.97;5051005;28;20025;-74
2022/07/23 02:35:46;;;;;;;5.05;1.50;;;;;;;16.23;63.72;101480.06;5032851;28;20025;-74
2022/07/23 02:38:12;;;;;;;4.43;1.05;;;;;;;16.42;63.38;101478.75;5033142;28;20032;-74
2022/07/23 02:40:37;;;;;;;3.50;1.40;;;;;;;16.62;62.72;101481.84;5032931;28;20025;-74
2022/07/23 02:43:03;;;;;;;4.85;1.40;;;;;;;16.24;63.60;101487.25;5049875;28;20078;-74
2022/07/23 02:45:28;;;;;;;4.40;1.27;;;;;;;16.15;64.21;101488.31;5049980;28;20032;-74
2022/07/23 02:47:53;;;;;;;4.88;1.23;;;;;;;16.29;63.71;101476.63;5033130;28;20029;-74
2022/07/23 02:50:19;;;;;;;3.28;1.27;;;;;;;16.30;63.55;101475.63;5033000;28;20111;-74
2022/07/23 02:52:44;;;;;;;8.43;1.20;;;;;;;16.00;64.47;101474.59;5032814;28;20021;-74
2022/07/23 02:55:10;;;;;;;6.43;1.30;;;;;;;16.18;64.10;101482.53;5049554;28;20025;-74
2022/07/23 02:57:36;;;;;;;9.65;1.50;;;;;;;16.06;64.84;101478.50;5032772;28;20025;-75
2022/07/23 03:00:02;;;;;;;3.78;1.40;;;;;;;16.09;64.75;101483.56;5050083;28;20029;-74
2022/07/23 03:02:27;;;;;;;5.38;1.60;;;;;;;16.09;64.67;101472.66;5049843;28;20021;-74
2022/07/23 03:04:53;;;;;;;6.80;1.40;;;;;;;16.18;64.49;101477.06;5030910;28;20033;-74
2022/07/23 03:07:18;;;;;;;5.65;1.30;;;;;;;16.24;64.21;101471.72;5048865;28;20086;-74
2022/07/23 03:09:44;;;;;;;9.38;1.60;;;;;;;16.13;64.56;101471.28;5029350;28;20032;-74
2022/07/23 03:12:09;;;;;;;8.52;1.30;;;;;;;15.97;65.26;101464.88;5032245;28;20024;-74
2022/07/23 03:14:34;;;;;;;3.50;1.20;;;;;;;16.01;65.42;101460.75;5050104;28;20079;-74
2022/07/23 03:17:00;;;;;;;6.93;1.90;;;;;;;15.92;65.51;101461.84;5049870;28;20052;-74
2022/07/23 03:19:26;;;;;;;5.40;1.58;;;;;;;16.16;65.02;101463.56;5048783;28;20064;-74
2022/07/23 03:21:51;;;;;;;14.88;1.83;;;;;;;16.10;65.13;101458.81;5031777;28;20027;-74
2022/07/23 03:24:19;;;;;;;7.68;1.50;;;;;;;16.03;65.40;101455.09;5048993;28;20028;-74
2022/07/23 03:26:45;;;;;;;5.00;1.38;;;;;;;15.83;66.11;101462.03;5028433;28;20056;-74
2022/07/23 03:29:11;;;;;;;5.90;1.50;;;;;;;15.82;66.37;101461.19;5032197;28;20064;-74
2022/07/23 03:31:36;;;;;;;6.47;1.60;;;;;;;15.91;65.72;101460.13;5031739;28;20033;-75
2022/07/23 03:34:02;;;;;;;6.63;1.38;;;;;;;15.92;65.91;101453.63;5049503;28;20082;-75
2022/07/23 03:36:27;;;;;;;7.32;1.63;;;;;;;16.00;65.98;101453.59;5028851;28;20033;-74
2022/07/23 03:38:53;;;;;;;4.82;1.38;;;;;;;16.13;65.52;101457.63;5047179;28;20048;-74
2022/07/23 03:41:20;;;;;;;5.65;1.13;;;;;;;16.18;65.35;101455.19;5048296;28;20025;-74
2022/07/23 03:43:45;;;;;;;4.20;1.35;;;;;;;16.14;65.63;101456.56;5049313;28;20029;-74
2022/07/23 03:46:11;;;;;;;5.68;2.00;;;;;;;15.96;66.48;101456.84;5023897;28;20028;-74
2022/07/23 03:48:36;;;;;;;10.77;2.10;;;;;;;15.94;66.69;101465.22;5031352;28;20021;-75
2022/07/23 03:51:02;;;;;;;6.78;1.80;;;;;;;16.05;66.48;101461.25;5031179;28;20412;-74
2022/07/23 03:53:28;;;;;;;6.07;1.70;;;;;;;15.85;66.93;101466.31;5031955;28;20025;-75
2022/07/23 03:55:53;;;;;;;8.25;1.95;;;;;;;15.96;67.09;101471.34;5031592;28;20046;-74
2022/07/23 03:58:18;;;;;;;4.25;1.25;;;;;;;16.11;66.36;101470.63;5031215;28;20033;-75
2022/07/23 04:00:44;;;;;;;8.25;1.63;;;;;;;16.14;66.12;101470.25;5031449;28;20032;-75
2022/07/23 04:03:09;;;;;;;7.25;1.63;;;;;;;15.99;66.90;101467.44;5031372;28;20033;-74
2022/07/23 04:05:34;;;;;;;6.05;1.48;;;;;;;16.07;66.78;101481.03;5028157;28;20025;-75
2022/07/23 04:08:00;;;;;;;9.90;1.60;;;;;;;16.23;66.10;101474.59;5047220;28;20027;-75
2022/07/23 04:10:25;;;;;;;5.07;1.60;;;;;;;16.34;65.98;101487.88;5048891;28;20086;-75
2022/07/23 04:12:51;;;;;;;6.72;1.40;;;;;;;16.36;66.21;101480.31;5048926;28;20456;-75
2022/07/23 04:15:16;;;;;;;5.22;1.52;;;;;;;16.59;65.40;101484.97;5031355;28;20021;-75
2022/07/23 04:17:43;;;;;;;8.68;1.95;;;;;;;16.57;65.38;101476.94;5048777;28;20063;-74
2022/07/23 04:20:09;;;;;;;7.10;1.58;;;;;;;16.70;64.68;101481.84;5030935;28;20075;-74
2022/07/23 04:22:35;;;;;;;9.65;2.03;;;;;;;16.65;65.11;101478.75;5048969;28;20031;-75
2022/07/23 04:25:00;;;;;;;8.23;1.48;;;;;;;16.52;65.45;101482.97;5031553;28;20029;-74
2022/07/23 04:27:26;;;;;;;4.55;1.55;;;;;;;16.78;64.79;101484.50;5029526;28;20021;-74
2022/07/23 04:29:51;;;;;;;5.13;1.65;;;;;;;16.73;64.54;101486.94;5029700;28;20448;-74
2022/07/23 04:32:16;;;;;;;2.90;1.25;;;;;;;16.50;65.18;101493.22;5047795;28;20029;-74
2022/07/23 04:34:42;;;;;;;7.80;1.20;;;;;;;16.63;64.88;101497.25;5030681;28;20021;-74
2022/07/23 04:37:07;;;;;;;6.85;1.80;;;;;;;16.68;64.69;101483.84;5031193;28;20391;-74
2022/07/23 04:39:33;;;;;;;10.70;1.55;;;;;;;16.47;65.41;101482.66;5030786;28;20028;-74
2022/07/23 04:41:58;;;;;;;6.65;1.67;;;;;;;16.51;65.65;101488.63;5047467;28;20239;-74
2022/07/23 04:44:24;;;;;;;5.80;1.63;;;;;;;16.58;65.31;101494.19;5031369;28;20040;-74
2022/07/23 04:46:49;;;;;;;5.75;1.73;;;;;;;16.61;65.12;101488.34;5030838;28;20084;-74
2022/07/23 04:49:15;;;;;;;6.22;1.58;;;;;;;16.43;66.10;101495.00;5047461;28;20024;-74
2022/07/23 04:51:40;;;;;;;7.63;1.67;;;;;;;16.30;66.22;101497.47;5049070;28;20025;-74
2022/07/23 04:54:05;;;;;;;6.50;1.33;;;;;;;16.31;66.68;101498.31;5031120;28;20079;-75
2022/07/23 04:56:31;;;;;;;4.05;1.48;;;;;;;16.29;66.34;101493.00;5031160;28;20082;-74
2022/07/23 04:58:56;;;;;;;10.38;1.77;;;;;;;15.91;68.15;101502.94;5027176;28;20484;-74
2022/07/23 05:01:21;;;;;;;10.23;1.77;;;;;;;16.04;67.77;101491.44;5027249;28;20030;-74
2022/07/23 05:03:48;;;;;;;4.03;1.60;;;;;;;15.91;68.25;101509.28;5011236;28;20071;-76
2022/07/23 05:06:14;;;;;;;7.15;1.55;;;;;;;15.97;68.42;101503.13;5027633;28;20029;-74
2022/07/23 05:08:39;;;;;;;6.13;2.13;;;;;;;15.86;68.36;101511.69;5007983;28;20029;-74
2022/07/23 05:11:05;;;;;;;5.82;2.47;;;;;;;15.74;69.22;101502.19;5026886;28;20026;-74
2022/07/23 05:13:30;;;;;;;10.32;1.90;;;;;;;15.67;69.47;101517.56;5011122;28;20111;-74
2022/07/23 05:15:56;;;;;;;10.43;2.20;;;;;;;15.51;70.08;101512.13;5011740;28;20030;-73
2022/07/23 05:18:21;;;;;;;7.88;2.25;;;;;;;15.40;70.07;101506.03;5026905;28;20029;-74
2022/07/23 05:20:47;;;;;;;8.38;2.13;;;;;;;15.83;68.88;101494.81;5028331;28;20025;-75
2022/07/23 05:23:12;;;;;;;13.52;2.08;;;;;;;16.12;67.41;101499.63;5013644;28;20060;-75
2022/07/23 05:25:39;;;;;;;6.85;1.67;;;;;;;16.31;66.61;101496.44;5023858;28;20354;-75
2022/07/23 05:28:04;;;;;;;6.43;1.63;;;;;;;16.18;66.15;101509.84;5043973;28;20083;-74
2022/07/23 05:30:30;;;;;;;6.78;1.45;;;;;;;16.26;65.69;101504.31;5030074;28;20044;-74
2022/07/23 05:32:55;;;;;;;4.97;1.33;;;;;;;16.50;65.31;101515.09;5046686;28;20033;-74
2022/07/23 05:35:21;;;;;;;5.47;1.42;;;;;;;16.49;65.26;101516.09;5030914;28;20033;-74
2022/07/23 05:37:46;;;;;;;6.38;1.23;;;;;;;16.59;65.21;101520.50;5030137;28;20021;-74
2022/07/23 05:40:12;;;;;;;4.32;1.45;;;;;;;16.53;64.94;101520.19;5048595;28;20021;-74
2022/07/23 05:42:39;;;;;;;7.22;1.75;;;;;;;16.43;65.47;101508.66;5034460;28;20029;-74
2022/07/23 05:45:05;;;;;;;4.70;1.65;;;;;;;16.35;65.16;101511.41;5034068;28;20029;-74
2022/07/23 05:47:48;;;;;;;12.60;1.58;;;;;;;16.21;65.98;101512.19;5034059;28;20030;-74
2022/07/23 05:50:14;;;;;;;4.40;1.20;;;;;;;16.25;65.51;101516.28;5033963;28;20028;-74
2022/07/23 05:52:40;;;;;;;7.70;1.60;;;;;;;16.55;64.12;101507.19;5034300;28;20027;-74
2022/07/23 05:55:07;;;;;;;4.95;1.30;;;;;;;16.77;64.14;101511.00;5034319;28;20403;-74
2022/07/23 05:57:33;;;;;;;7.40;1.50;;;;;;;16.58;64.35;101516.06;5033675;28;20086;-74
2022/07/23 05:59:58;;;;;;;6.45;1.17;;;;;;;16.34;64.67;101503.41;5049410;28;20468;-74
2022/07/23 06:02:24;;;;;;;1.25;0.90;;;;;;;16.55;64.17;101512.66;5050672;28;20013;-74
2022/07/23 06:04:49;;;;;;;5.55;1.33;;;;;;;16.42;64.58;101517.88;5049937;28;20028;-74
2022/07/23 06:07:14;;;;;;;5.15;1.20;;;;;;;16.55;64.50;101518.13;5050501;28;20017;-74
2022/07/23 06:09:40;;;;;;;6.97;1.52;;;;;;;16.92;63.52;101513.78;5050487;28;20025;-74
2022/07/23 06:12:06;;;;;;;3.10;1.20;;;;;;;16.68;63.82;101522.13;5050651;28;20053;-74
2022/07/23 06:14:31;;;;;;;3.47;1.20;;;;;;;16.47;64.86;101520.91;5030540;28;20021;-74
2022/07/23 06:16:56;;;;;;;3.75;1.23;;;;;;;16.53;64.86;101514.72;5049191;28;20021;-74
2022/07/23 06:19:22;;;;;;;2.45;1.27;;;;;;;16.57;65.04;101514.38;5051574;28;20055;-74
2022/07/23 06:21:47;;;;;;;9.30;1.48;;;;;;;16.36;65.62;101518.59;5051424;28;20020;-74
2022/07/23 06:24:13;;;;;;;4.65;1.20;;;;;;;16.43;65.96;101519.59;5032105;28;20103;-74
2022/07/23 06:26:38;;;;;;;5.43;1.90;;;;;;;16.85;64.64;101510.06;5033378;28;20025;-75
2022/07/23 06:29:03;;;;;;;8.95;1.77;;;;;;;16.68;64.84;101511.19;5033728;28;20487;-74
2022/07/23 06:31:29;;;;;;;13.13;1.95;;;;;;;16.55;65.48;101517.28;5033976;28;20028;-74
2022/07/23 06:33:54;;;;;;;10.13;1.45;;;;;;;16.37;66.24;101514.00;5049933;28;20021;-74
2022/07/23 06:36:20;;;;;;;6.72;1.70;;;;;;;16.30;66.83;101522.06;5034402;28;20013;-74
2022/07/23 06:38:46;;;;;;;3.40;1.30;;;;;;;16.66;65.97;101513.28;5033310;28;20119;-74
2022/07/23 06:41:11;;;;;;;7.75;1.60;;;;;;;16.83;65.45;101516.78;5033979;28;20037;-74
2022/07/23 06:43:36;;;;;;;4.70;1.63;;;;;;;17.13;64.40;101509.47;5050903;28;20115;-75
2022/07/23 06:46:02;;;;;;;10.30;2.03;;;;;;;16.76;65.23;101520.25;5050415;28;20137;-75
2022/07/23 06:48:28;;;;;;;4.47;1.27;;;;;;;16.79;65.65;101519.00;5034100;28;20035;-75
2022/07/23 06:50:55;;;;;;;7.50;1.55;;;;;;;17.00;64.07;101510.97;5050262;28;20032;-75
2022/07/23 06:53:20;;;;;;;6.47;1.30;;;;;;;17.28;63.29;101513.13;5051251;28;20021;-75
2022/07/23 06:55:46;;;;;;;2.92;0.90;;;;;;;17.51;61.82;101513.88;5034226;28;20028;-75
2022/07/23 06:58:13;;;;;;;6.68;1.70;;;;;;;17.30;63.54;101521.97;5034054;28;20021;-75
2022/07/23 07:00:39;;;;;;;5.30;1.50;;;;;;;17.41;62.78;101528.84;5033116;28;20083;-71
2022/07/23 07:03:04;;;;;;;4.32;1.13;;;;;;;17.49;62.25;101526.06;5030512;28;20012;-71
2022/07/23 07:05:30;;;;;;;3.15;1.00;;;;;;;17.14;63.27;101533.06;5046075;28;20024;-71
2022/07/23 07:07:56;;;;;;;5.13;1.50;;;;;;;16.95;63.54;101540.78;5026937;28;20037;-70
2022/07/23 07:10:21;;;;;;;4.28;1.35;;;;;;;16.73;64.72;101541.63;5043082;28;20025;-71
2022/07/23 07:12:47;;;;;;;10.60;1.35;;;;;;;16.75;64.41;101555.94;5047435;28;20040;-71
2022/07/23 07:15:12;;;;;;;5.00;1.38;;;;;;;16.60;65.39;101549.53;5047894;28;20029;-71
2022/07/23 07:17:38;;;;;;;3.13;1.20;;;;;;;16.28;66.50;101556.91;5026394;28;20014;-71
2022/07/23 07:20:04;;;;;;;4.82;1.20;;;;;;;16.41;64.91;101565.38;5037360;28;20016;-72
2022/07/23 07:22:29;;;;;;;4.10;1.08;;;;;;;16.02;66.90;101555.31;5049548;28;20020;-70
2022/07/23 07:24:55;;;;;;;5.82;0.90;;;;;;;16.28;65.70;101548.72;5030697;28;20028;-71
2022/07/23 07:27:20;;;;;;;4.78;1.10;;;;;;;16.23;65.39;101554.69;5044154;28;20049;-70
2022/07/23 07:29:46;;;;;;;3.67;1.05;;;;;;;16.11;65.77;101547.09;5032024;28;20399;-71
2022/07/23 07:32:11;;;;;;;3.05;1.10;;;;;;;16.38;65.48;101564.91;5032473;28;20031;-71
2022/07/23 07:34:36;;;;;;;4.72;1.08;;;;;;;16.50;67.92;101547.91;5032844;28;20033;-71
2022/07/23 07:37:02;;;;;;;3.25;1.40;;;;;;;15.86;73.25;101566.31;5045176;28;20508;-72
2022/07/23 07:39:27;;;;;;;3.95;1.15;;;;;;;15.53;74.68;101564.69;5030110;28;20021;-74
2022/07/23 07:41:53;;;;;;;6.20;1.30;;;;;;;15.05;76.83;101566.41;5047424;28;20024;-73
2022/07/23 07:44:18;;;;;;;6.55;1.63;;;;;;;15.47;76.52;101567.06;5032383;28;20111;-73
2022/07/23 07:59:58;;;;;;;5.75;1.30;;;;;;;16.49;73.47;101557.09;5036771;28;20542;-71
2022/07/23 08:02:24;;;;;;;3.22;1.30;;;;;;;16.53;71.16;101558.47;5041967;28;20111;-72
2022/07/23 08:04:50;;;;;;;4.05;1.17;;;;;;;16.62;69.28;101566.59;5042813;28;20064;-71
2022/07/23 08:07:15;;;;;;;7.32;1.20;;;;;;;16.22;70.29;101549.41;5044436;28;20040;-71
2022/07/23 08:09:44;;;;;;;4.28;0.98;;;;;;;17.05;69.12;101552.31;5046804;28;20036;-72
2022/07/23 08:12:09;;;;;;;4.00;1.08;;;;;;;16.84;68.46;101559.50;5046191;28;20021;-71
2022/07/23 08:14:35;;;;;;;7.20;1.40;;;;;;;17.23;67.04;101548.38;5044080;28;20125;-70
2022/07/23 08:17:01;;;;;;;6.63;1.08;;;;;;;16.95;68.37;101554.44;5046238;28;20017;-70
2022/07/23 08:19:27;;;;;;;2.15;0.98;;;;;;;17.34;66.96;101557.00;5043713;28;20075;-71
2022/07/23 08:21:52;;;;;;;5.57;1.30;;;;;;;17.81;66.44;101552.25;5048300;28;20499;-72
2022/07/23 08:24:18;;;;;;;3.90;1.20;;;;;;;17.07;64.83;101552.94;5045583;28;20100;-70
2022/07/23 08:26:44;;;;;;;4.40;1.00;;;;;;;16.90;68.15;101565.09;5061748;28;20017;-73
2022/07/23 08:29:10;;;;;;;5.55;1.33;;;;;;;16.23;72.80;101568.34;5044457;28;20036;-70
2022/07/23 08:31:36;;;;;;;2.90;1.27;;;;;;;15.61;75.48;101567.38;5045973;28;20035;-70
2022/07/23 08:34:02;;;;;;;2.97;1.30;;;;;;;15.50;75.59;101576.78;5062413;28;20021;-70
2022/07/23 08:36:31;;;;;;;3.08;1.30;;;;;;;15.60;76.41;101561.06;5060997;28;20025;-70
2022/07/23 08:38:59;;;;;;;3.97;1.38;;;;;;;15.68;75.13;101562.97;5061485;28;20025;-70
2022/07/23 08:41:25;;;;;;;6.63;1.50;;;;;;;15.80;74.43;101574.34;5062274;28;20021;-71
2022/07/23 08:43:51;;;;;;;4.53;1.55;;;;;;;15.90;73.58;101573.13;5045693;28;20415;-71
2022/07/23 08:46:19;;;;;;;3.38;0.98;;;;;;;15.78;73.67;101569.09;5045552;28;20503;-70
2022/07/23 08:48:48;;;;;;;3.03;1.30;;;;;;;16.43;73.60;101579.72;5025850;28;20018;-70
2022/07/23 08:51:14;;;;;;;4.70;1.13;;;;;;;16.22;69.95;101571.28;5033968;28;20405;-71
2022/07/23 08:53:41;;;;;;;1.67;0.95;;;;;;;15.96;69.01;101587.94;5013751;28;20030;-73
2022/07/23 08:56:08;;;;;;;2.53;1.13;;;;;;;16.14;68.69;101584.97;5024672;28;20037;-69
2022/07/23 08:58:33;;;;;;;1.33;0.75;;;;;;;16.25;66.75;101566.31;5025189;28;20026;-70
2022/07/23 09:01:00;;;;;;;4.30;0.73;;;;;;;16.58;64.61;101565.28;5011881;28;20025;-71
2022/07/23 09:03:31;;;;;;;3.05;1.00;;;;;;;16.78;66.64;101561.06;5012260;28;20022;-70
2022/07/23 09:06:01;;;;;;;6.43;1.17;;;;;;;17.30;64.56;101557.56;5012428;28;20120;-71
2022/07/23 09:08:41;;;;;;;2.60;1.00;;;;;;;17.67;63.32;101555.78;5010423;28;20044;-71
2022/07/23 09:11:10;;;;;;;1.37;0.70;;;;;;;18.23;61.53;101553.44;5008561;28;20061;-72
2022/07/23 09:13:47;;;;;;;3.65;1.05;;;;;;;17.45;60.76;101552.09;5007700;28;20033;-71
2022/07/23 09:16:26;;;;;;;4.18;1.25;;;;;;;17.96;61.03;101560.47;5011871;28;20116;-70
2022/07/23 09:18:57;;;;;;;4.63;0.85;;;;;;;18.08;59.90;101559.78;5011995;28;20506;-71
2022/07/23 09:21:29;;;;;;;1.42;0.82;;;;;;;18.39;58.72;101562.31;5011983;28;20033;-70
2022/07/23 09:23:58;;;;;;;2.47;0.80;;;;;;;18.01;60.02;101550.63;5011181;28;20037;-71
2022/07/23 09:26:36;;;;;;;2.45;1.10;;;;;;;18.42;59.03;101558.31;5012098;28;20030;-70
2022/07/23 09:29:05;;;;;;;0.93;0.90;;;;;;;18.61;57.50;101549.47;5011697;28;20022;-71
2022/07/23 09:31:56;;;;;;;4.78;0.95;;;;;;;18.91;57.19;101554.88;5012047;28;20105;-71
2022/07/23 09:34:27;;;;;;;6.22;0.77;;;;;;;18.59;57.65;101551.56;5001518;28;20033;-71
2022/07/23 09:37:15;;;;;;;1.70;0.80;;;;;;;18.33;56.53;101562.22;5012178;28;20084;-72
2022/07/23 09:39:43;;;;;;;0.77;0.65;;;;;;;18.23;57.29;101558.91;5011205;28;20503;-70
2022/07/23 09:42:25;;;;;;;1.20;0.55;;;;;;;18.59;56.97;101561.69;5011907;28;20025;-68
2022/07/23 09:44:56;;;;;;;3.60;1.00;;;;;;;18.37;57.81;101566.25;5009436;28;20088;-71
2022/07/23 09:47:24;;;;;;;5.32;0.95;;;;;;;18.54;58.18;101554.03;5025674;28;20272;-70
2022/07/23 09:50:06;;;;;;;5.13;1.00;;;;;;;18.57;57.97;101553.63;5011071;28;20401;-71
2022/07/23 09:52:52;;;;;;;5.18;0.88;;;;;;;18.12;57.99;101561.09;5009488;28;20117;-70
2022/07/23 09:55:18;;;;;;;3.50;1.67;;;;;;;18.15;59.01;101558.00;5011019;28;20029;-71
2022/07/23 09:57:46;;;;;;;1.45;0.90;;;;;;;17.99;59.10;101560.91;5027232;28;20030;-70
2022/07/23 10:00:13;;;;;;;5.32;0.90;;;;;;;18.39;58.35;101561.44;5010663;28;20022;-71
2022/07/23 10:02:39;;;;;;;4.70;1.10;;;;;;;18.25;59.13;101565.03;5011421;28;20035;-70
2022/07/23 10:05:06;;;;;;;9.55;1.30;;;;;;;18.44;57.54;101565.28;5010949;28;20025;-71
2022/07/23 10:07:34;;;;;;;2.40;0.80;;;;;;;18.09;58.04;101577.94;5007498;28;20018;-71
2022/07/23 10:10:01;;;;;;;2.63;1.00;;;;;;;18.04;57.59;101569.44;5006821;28;20026;-70
2022/07/23 10:14:53;;;;;;;4.20;1.17;;;;;;;18.22;56.83;101579.16;5012662;28;20028;-70
2022/07/23 10:17:19;;;;;;;2.10;0.80;;;;;;;18.09;56.85;101577.94;5007725;28;20031;-69
2022/07/23 10:19:44;;;;;;;4.80;1.10;;;;;;;17.85;57.66;101570.00;5009422;28;20026;-72
2022/07/23 10:22:19;;;;;;;2.60;1.02;;;;;;;18.00;57.88;101568.13;5010985;28;20109;-71
2022/07/23 10:24:51;;;;;;;1.80;1.08;;;;;;;17.92;57.91;101570.94;5010600;28;20028;-72
2022/07/23 10:27:31;;;;;;;3.25;1.00;;;;;;;17.76;57.11;101587.59;5010208;28;20030;-71
2022/07/23 10:30:15;;;;;;;1.27;0.70;;;;;;;17.86;56.48;101593.63;5010692;28;20053;-71
2022/07/23 10:33:10;;;;;;;1.42;0.65;;;;;;;18.32;55.82;101582.44;5011128;28;20028;-71
2022/07/23 10:35:43;;;;;;;3.95;0.90;;;;;;;18.54;55.33;101575.97;5016957;28;20053;-72
2022/07/23 10:38:09;;;;;;;1.23;0.90;;;;;;;18.86;55.14;101584.78;5010267;28;20025;-72
2022/07/23 10:45:11;;;;;;;3.33;1.08;;;;;;;19.06;54.15;101591.31;5009247;28;20040;-79
2022/07/23 10:48:29;;;;;;;1.33;0.73;;;;;;;18.79;52.36;101589.34;4990129;28;20497;-79
2022/07/23 10:51:28;;;;;;;;;;;;;;;;;;;;;
2022/07/23 10:54:20;;;;;;;5.30;0.70;;;;;;;18.43;54.13;101601.97;5008358;28;20053;-78
2022/07/23 10:57:22;;;;;;;3.83;0.98;;;;;;;18.98;53.78;101605.19;5010915;28;20030;-78
2022/07/23 11:00:41;;;;;;;1.23;0.90;;;;;;;19.47;53.66;101593.34;4994812;28;20117;-78
2022/07/23 11:03:39;;;;;;;4.88;1.05;;;;;;;19.19;53.28;101596.09;5010962;28;20088;-79
2022/07/23 11:06:46;;;;;;;2.95;0.93;;;;;;;19.84;52.22;101600.44;5008219;28;20039;-79
2022/07/23 11:10:03;;;;;;;2.70;0.80;;;;;;;19.55;53.20;101601.44;4954927;28;20061;-77
2022/07/23 11:20:35;;;;;;;1.83;0.82;;;;;;;18.90;57.78;101597.06;5009601;28;20109;-79
2022/07/23 11:23:35;;;;;;;5.18;1.20;;;;;;;19.09;57.11;101601.03;4998732;28;20412;-79
2022/07/23 11:29:54;;;;;;;2.63;1.20;;;;;;;19.62;55.60;101613.34;5009230;28;20037;-78
2022/07/23 11:33:10;;;;;;;4.05;1.25;;;;;;;19.23;56.41;101598.25;5010203;28;20034;-77
2022/07/23 11:36:00;;;;;;;4.05;1.20;;;;;;;19.22;55.66;101602.00;5010815;28;20025;-78
2022/07/23 11:43:15;;;;;;;2.95;0.77;;;;;;;19.84;54.58;101588.59;5000731;28;20113;-79
2022/07/23 11:46:20;;;;;;;3.70;1.00;;;;;;;19.97;53.96;101591.41;5010276;28;20177;-79
2022/07/23 11:49:28;;;;;;;3.53;0.70;;;;;;;19.28;56.12;101594.88;5008471;28;20026;-79
2022/07/23 11:52:40;;;;;;;5.45;0.93;;;;;;;19.78;53.31;101588.34;5006116;28;20041;-79
2022/07/23 11:55:29;;;;;;;1.63;0.60;;;;;;;19.97;52.46;101599.66;5012229;28;20025;-79
2022/07/23 12:01:20;;;;;;;2.00;0.70;;;;;;;20.51;51.44;101601.63;4990804;28;20098;-79
2022/07/23 12:04:27;;;;;;;3.05;0.80;;;;;;;20.43;52.11;101599.03;5012633;28;20026;-79
2022/07/23 12:07:07;;;;;;;2.80;0.93;;;;;;;20.49;51.85;101593.59;5003031;28;20057;-79
2022/07/23 12:10:23;;;;;;;4.15;0.90;;;;;;;19.88;53.31;101595.34;5011835;28;20021;-78
2022/07/23 12:13:55;;;;;;;;;;;;;;;;;;;;;
2022/07/23 12:17:19;;;;;;;;;;;;;;;;;;;;;
2022/07/23 12:20:53;;;;;;;5.53;1.75;;;;;;;19.81;53.79;101621.94;5014059;28;20036;-79
2022/07/23 12:23:58;;;;;;;10.15;1.67;;;;;;;19.63;52.74;101620.56;5004967;28;20054;-77